CDT,Max TemperatureF,Mean TemperatureF,Min TemperatureF,Max Dew PointF,MeanDew PointF,Min DewpointF,Max Humidity, Mean Humidity, Min Humidity, Max Sea Level PressureIn, Mean Sea Level PressureIn, Min Sea Level PressureIn, Max VisibilityMiles, Mean VisibilityMiles, Min VisibilityMiles, Max Wind SpeedMPH, Mean Wind SpeedMPH, Max Gust SpeedMPH,PrecipitationIn, CloudCover, Events, WindDirDegrees
2012-10-1,73,62,50,48,38,30,67,44,23,29.97,29.92,29.86,10,10,10,25,10,32,0.00,0,,328
2012-10-2,73,54,35,45,33,28,75,45,20,29.98,29.91,29.83,10,10,7,12,5,17,0.00,0,,199
2012-10-3,78,60,42,37,31,19,76,39,12,29.90,29.85,29.78,10,10,10,20,8,23,0.00,0,,160
2012-10-4,66,54,41,43,33,28,76,57,26,30.22,30.05,29.76,10,10,7,33,22,43,0.00,4,,286
2012-10-5,48,40,32,30,25,21,80,52,34,30.22,30.19,30.15,10,10,10,26,17,33,0.00,3,,302
2012-10-6,44,36,28,30,24,18,75,59,36,30.30,30.25,30.20,10,10,10,22,14,26,0.00,4,,316
2012-10-7,57,39,21,25,16,10,80,46,16,30.25,30.03,29.86,10,10,10,20,8,25,0.00,0,,226
2012-10-8,69,54,39,39,29,19,61,42,18,29.86,29.73,29.60,10,10,10,26,11,38,0.00,2,,223
2012-10-9,51,42,32,41,31,21,87,57,35,30.03,29.86,29.74,10,10,10,28,10,36,0.03,4,Rain,279
2012-10-10,57,42,26,30,22,16,86,48,20,30.13,30.02,29.83,10,10,10,16,8,25,0.00,1,,246
2012-10-11,57,44,28,36,24,10,76,43,22,30.40,30.11,29.79,10,10,10,25,13,30,0.00,0,,329
2012-10-12,55,40,24,23,15,7,80,41,14,30.42,30.28,29.98,10,10,7,25,7,30,0.00,1,Thunderstorm,156
2012-10-13,60,55,50,57,49,27,94,83,38,29.97,29.75,29.66,10,8,2,24,12,31,0.00,1,Rain-Thunderstorm,160
2012-10-14,60,52,44,48,43,34,93,73,45,29.92,29.80,29.71,10,9,3,23,10,30,0.00,0,,337
2012-10-15,66,48,30,41,34,27,93,57,28,29.97,29.87,29.70,10,10,7,16,6,20,0.00,0,,201
2012-10-16,69,60,51,48,46,41,82,62,46,29.69,29.50,29.35,10,10,10,17,8,21,0.00,0,Rain-Thunderstorm,153
2012-10-17,62,53,44,50,44,39,93,69,45,29.35,29.27,29.13,10,10,4,33,14,43,0.01,2,Rain,246
2012-10-18,50,46,41,46,43,39,93,88,76,29.39,29.27,29.17,10,6,1,20,14,28,0.01,1,Rain,304
2012-10-19,48,46,44,46,44,43,100,92,87,29.75,29.61,29.40,10,8,1,23,11,30,0.01,4,Rain,315
2012-10-20,55,48,42,45,43,41,100,88,67,29.82,29.77,29.75,10,7,1,12,6,,0.00,3,,195
2012-10-21,68,56,44,52,46,41,93,75,52,29.91,29.79,29.72,10,10,10,17,10,26,0.00,0,,211
2012-10-22,64,54,44,52,48,43,93,75,59,29.92,29.87,29.81,10,10,10,15,8,22,0.00,2,,53
2012-10-23,62,58,55,61,56,52,100,87,77,29.80,29.73,29.68,10,6,0,18,10,18,0.00,2,Fog-Thunderstorm,171
2012-10-24,59,52,46,55,50,43,94,89,82,29.87,29.82,29.78,10,6,2,18,6,22,0.02,1,Rain,336
2012-10-25,46,39,32,43,34,25,93,83,60,30.22,29.93,29.73,10,8,2,28,17,38,0.39,6,Rain-Snow-Thunderstorm,322
2012-10-26,39,36,32,28,27,25,81,70,56,30.40,30.34,30.23,10,10,10,17,11,21,0.00,6,,279
2012-10-27,42,34,26,27,24,21,93,65,42,30.37,30.33,30.28,10,10,10,10,4,,0.00,2,,209
2012-10-28,48,38,28,30,27,23,86,67,50,30.32,30.28,30.23,10,10,10,15,7,18,0.00,4,,157
2012-10-29,51,42,33,30,27,23,75,60,43,30.27,30.23,30.20,10,10,10,16,10,23,0.00,3,,138
2012-10-30,48,40,32,30,27,19,81,63,46,30.20,30.14,30.07,10,10,10,9,5,,0.00,2,,59
2012-10-31,53,40,26,30,23,18,80,53,26,30.08,30.01,29.93,10,10,7,7,1,,0.00,2,,253